aviador You're here:

KPNC Decoded Metar

PONCA CITY in OK, USA
Report Time2017-04-25 07:53:00
UTC Time2017-04-25 08:28:29
Flight Rules vfr VFR
Wind140° at 15 kt
W.Decomp.*RWY 17: 12.3 kt HW 8.6 kt LCW
W.Rank140° ranks 5
Current wind is above 140° avg. (8.7)
Visibility9999 m
Phenomena:N/A
Clouds:N/A
Expected CloudBase > 2,800 ft AGL from Temp-Dew spread
CeilingNone
Temp16°C (ISA +3)
Dew Point09°C (63% RH)
AAT10.4°C
QNH997 hPa
Density Alt2,067 ft
Elevation1,010 ft
Report Wrong Elevation
Raw Report
KPNC 250753Z AUTO 14015KT 10SM CLR 16/09 A2945=

Extra information for KPNC:More info

Metar Taf Metar & Taf Last 4 Metars F.Rules Stats Wind Profile Meteogram Temp Stats Airport Information Weather charts Add Link Nearby VenuesMetar ALERT Operation Metar Decoded Social comments

AIRNAV info for KPNC